Time;durP1;ratioP1;P1;durP2;ratioP2;P2;SDS_P1;SDS_P2;PMS_P1;PMS_P2;Temp;Humidity;BMP_temperature;BMP_pressure;BME280_temperature;BME280_humidity;BME280_pressure;Samples;Min_cycle;Max_cycle;Signal;HPM_P1;HPM_P2
2022/09/02 00:00:41;;;;;;;;;;;;;;;11.36;100.00;101595.41;5073945;28;20024;-78
2022/09/02 00:03:07;;;;;;;2.47;0.93;;;;;;;11.37;100.00;101618.47;5090805;28;19912;-78
2022/09/02 00:05:32;;;;;;;1.10;0.87;;;;;;;11.30;100.00;101617.38;5090503;28;20028;-79
2022/09/02 00:07:58;;;;;;;2.63;1.10;;;;;;;11.44;100.00;101636.59;5094121;28;20036;-78
2022/09/02 00:10:24;;;;;;;4.53;1.27;;;;;;;11.36;100.00;101627.50;5075844;28;20118;-78
2022/09/02 00:12:50;;;;;;;1.33;0.95;;;;;;;11.31;100.00;101618.22;5076718;28;20043;-78
2022/09/02 00:15:15;;;;;;;3.30;1.07;;;;;;;11.17;100.00;101611.53;5093822;28;20102;-79
2022/09/02 00:17:40;;;;;;;1.47;0.90;;;;;;;11.09;100.00;101617.56;5093825;28;20052;-78
2022/09/02 00:20:06;;;;;;;1.10;0.63;;;;;;;11.03;100.00;101612.81;5076045;28;20556;-78
2022/09/02 00:22:32;;;;;;;1.35;1.02;;;;;;;10.99;100.00;101606.91;5076738;28;20044;-77
2022/09/02 00:24:57;;;;;;;0.80;0.80;;;;;;;11.10;100.00;101621.09;5094550;28;20019;-78
2022/09/02 00:27:22;;;;;;;1.57;0.97;;;;;;;11.04;100.00;101606.47;5077118;28;20293;-78
2022/09/02 00:29:48;;;;;;;1.53;1.07;;;;;;;10.92;100.00;101611.16;5076294;28;20024;-78
2022/09/02 00:32:14;;;;;;;2.00;1.00;;;;;;;10.86;100.00;101602.84;5092951;28;20040;-78
2022/09/02 00:34:39;;;;;;;3.83;1.23;;;;;;;10.82;100.00;101599.66;5076105;28;20032;-78
2022/09/02 00:37:04;;;;;;;1.73;0.90;;;;;;;10.73;100.00;101598.66;5076268;28;20474;-78
2022/09/02 00:39:31;;;;;;;5.07;1.65;;;;;;;10.72;100.00;101605.00;5093179;28;20028;-78
2022/09/02 00:41:56;;;;;;;1.20;0.90;;;;;;;10.68;100.00;101610.78;5075843;28;20078;-76
2022/09/02 00:44:21;;;;;;;1.33;0.90;;;;;;;10.63;100.00;101613.00;5075187;28;20115;-78
2022/09/02 00:46:48;;;;;;;1.40;0.90;;;;;;;10.56;100.00;101615.41;5076612;28;20054;-79
2022/09/02 00:49:23;;;;;;;1.05;0.80;;;;;;;10.55;100.00;101625.22;5073345;28;20073;-78
2022/09/02 00:52:24;;;;;;;1.08;0.95;;;;;;;10.46;100.00;101622.56;5086241;28;20090;-76
2022/09/02 00:54:56;;;;;;;1.92;1.10;;;;;;;10.37;100.00;101620.75;5043592;28;20053;-78
2022/09/02 00:57:25;;;;;;;2.15;1.35;;;;;;;10.37;100.00;101631.41;5049421;28;20048;-78
2022/09/02 01:00:04;;;;;;;1.10;1.00;;;;;;;10.34;100.00;101627.19;5039273;28;20147;-78
2022/09/02 01:02:30;;;;;;;1.85;0.85;;;;;;;10.25;100.00;101625.34;5058233;28;20038;-79
2022/09/02 01:04:59;;;;;;;2.13;1.10;;;;;;;10.20;100.00;101622.25;5050044;28;20032;-78
2022/09/02 01:07:29;;;;;;;4.15;1.42;;;;;;;10.21;100.00;101632.78;5050920;28;20076;-76
2022/09/02 01:09:55;;;;;;;3.22;0.98;;;;;;;10.21;100.00;101630.13;5053592;28;20045;-77
2022/09/02 01:12:21;;;;;;;1.58;1.25;;;;;;;10.26;100.00;101633.22;5047315;28;20036;-76
2022/09/02 01:14:47;;;;;;;4.55;1.33;;;;;;;10.29;100.00;101634.78;5022921;28;20660;-76
2022/09/02 01:17:12;;;;;;;5.83;1.03;;;;;;;10.40;100.00;101634.66;5070241;28;20063;-78
2022/09/02 01:19:44;;;;;;;1.77;0.95;;;;;;;10.44;100.00;101640.53;5051168;28;20119;-78
2022/09/02 01:22:20;;;;;;;1.23;1.10;;;;;;;10.48;100.00;101629.44;5047233;28;20539;-77
2022/09/02 01:24:45;;;;;;;1.17;1.00;;;;;;;10.61;100.00;101650.56;5052820;28;20052;-80
2022/09/02 01:27:18;;;;;;;3.77;1.27;;;;;;;10.55;100.00;101630.56;5038801;28;20025;-76
2022/09/02 01:29:45;;;;;;;1.52;1.10;;;;;;;10.51;100.00;101623.84;5037919;28;20139;-78
2022/09/02 01:32:11;;;;;;;;;;;;;;;10.73;100.00;101640.56;5072708;28;20016;-78
2022/09/02 01:34:36;;;;;;;;;;;;;;;10.68;100.00;101632.13;5075763;28;19919;-78
2022/09/02 01:37:02;;;;;;;2.63;1.02;;;;;;;10.65;100.00;101630.59;5074521;28;19919;-78
2022/09/02 01:39:27;;;;;;;2.60;1.10;;;;;;;10.68;100.00;101624.97;5073329;28;20031;-78
2022/09/02 01:41:53;;;;;;;2.13;1.10;;;;;;;10.66;100.00;101628.75;5090842;28;20268;-78
2022/09/02 01:44:19;;;;;;;1.80;1.00;;;;;;;10.73;100.00;101630.72;5090481;28;20101;-78
2022/09/02 01:46:46;;;;;;;2.17;0.93;;;;;;;10.68;100.00;101616.94;5087097;28;20020;-78
2022/09/02 01:49:12;;;;;;;1.88;0.90;;;;;;;10.78;100.00;101608.91;5086566;28;20035;-76
2022/09/02 01:51:39;;;;;;;2.03;0.93;;;;;;;10.76;100.00;101601.03;5085815;28;20119;-75
2022/09/02 01:54:05;;;;;;;3.53;1.20;;;;;;;10.78;100.00;101590.22;5068896;28;20036;-76
2022/09/02 01:56:31;;;;;;;1.95;1.00;;;;;;;10.86;100.00;101594.84;5069389;28;20030;-76
2022/09/02 01:58:59;;;;;;;2.15;1.10;;;;;;;10.80;100.00;101582.06;5085725;28;20078;-76
2022/09/02 02:01:24;;;;;;;2.05;0.80;;;;;;;10.63;100.00;101562.25;5085660;28;20019;-76
2022/09/02 02:03:50;;;;;;;1.00;0.90;;;;;;;10.66;100.00;101580.69;5072031;28;20124;-78
2022/09/02 02:06:19;;;;;;;1.17;1.00;;;;;;;10.61;100.00;101577.63;5071211;28;20035;-78
2022/09/02 02:08:46;;;;;;;2.15;1.15;;;;;;;10.53;100.00;101564.94;5072362;28;20032;-76
2022/09/02 02:11:18;;;;;;;2.70;1.00;;;;;;;10.53;100.00;101563.13;5085399;28;20085;-75
2022/09/02 02:13:48;;;;;;;1.90;1.20;;;;;;;10.64;100.00;101577.31;5086290;28;20446;-76
2022/09/02 02:16:14;;;;;;;1.23;0.95;;;;;;;10.56;100.00;101578.03;5069265;28;20106;-76
2022/09/02 02:18:40;;;;;;;1.63;1.07;;;;;;;10.39;100.00;101568.91;5086206;28;20030;-76
2022/09/02 02:21:05;;;;;;;1.33;1.03;;;;;;;10.44;100.00;101587.16;5085706;28;20376;-77
2022/09/02 02:23:31;;;;;;;1.90;0.90;;;;;;;10.38;100.00;101588.56;5069464;28;20290;-76
2022/09/02 02:25:56;;;;;;;3.70;1.27;;;;;;;10.35;100.00;101594.22;5072544;28;20027;-76
2022/09/02 02:28:22;;;;;;;1.80;1.10;;;;;;;10.26;100.00;101587.00;5073199;28;20385;-76
2022/09/02 02:30:47;;;;;;;4.68;1.20;;;;;;;10.30;100.00;101597.28;5073438;28;20024;-76
2022/09/02 02:33:13;;;;;;;0.80;0.80;;;;;;;10.23;100.00;101595.25;5090816;28;20497;-76
2022/09/02 02:35:40;;;;;;;;;;;;;;;10.26;100.00;101617.19;5091119;28;20046;-76
2022/09/02 02:38:07;;;;;;;1.20;1.00;;;;;;;10.15;100.00;101602.16;5073560;28;19912;-76
2022/09/02 02:40:33;;;;;;;1.77;0.98;;;;;;;10.07;100.00;101591.34;5073596;28;20119;-76
2022/09/02 02:42:59;;;;;;;2.03;0.93;;;;;;;10.09;100.00;101604.53;5073050;28;20118;-76
2022/09/02 02:45:25;;;;;;;1.27;1.17;;;;;;;10.08;100.00;101602.84;5090829;28;20032;-76
2022/09/02 02:47:51;;;;;;;1.10;1.00;;;;;;;10.00;100.00;101592.88;5073946;28;20024;-76
2022/09/02 02:50:20;;;;;;;2.92;1.20;;;;;;;9.93;100.00;101586.41;5072914;28;20028;-76
2022/09/02 02:52:47;;;;;;;1.10;1.00;;;;;;;9.85;100.00;101592.41;5090613;28;20031;-78
2022/09/02 02:55:13;;;;;;;1.17;0.90;;;;;;;9.67;100.00;101570.06;5073366;28;20410;-76
2022/09/02 02:57:41;;;;;;;1.13;0.80;;;;;;;9.70;100.00;101580.47;5090376;28;20032;-76
2022/09/02 03:00:14;;;;;;;2.25;1.10;;;;;;;9.67;100.00;101583.41;5072988;28;20020;-75
2022/09/02 03:02:40;;;;;;;3.45;0.90;;;;;;;9.66;100.00;101584.38;5090705;28;20118;-76
2022/09/02 03:05:09;;;;;;;0.90;0.80;;;;;;;9.63;100.00;101593.47;5090364;28;20684;-76
2022/09/02 03:07:35;;;;;;;1.13;0.80;;;;;;;9.50;100.00;101592.88;5090513;28;20489;-76
2022/09/02 03:10:03;;;;;;;1.38;0.98;;;;;;;9.47;100.00;101590.47;5073618;28;20596;-76
2022/09/02 03:12:32;;;;;;;1.73;1.13;;;;;;;9.41;100.00;101588.34;5074408;28;20028;-77
2022/09/02 03:14:57;;;;;;;2.03;1.10;;;;;;;9.34;100.00;101587.19;5073631;28;20058;-76
2022/09/02 03:17:23;;;;;;;1.50;0.90;;;;;;;9.35;100.00;101595.06;5073901;28;20032;-77
2022/09/02 03:19:49;;;;;;;1.17;0.80;;;;;;;9.34;100.00;101593.38;5074050;28;20393;-79
2022/09/02 03:22:16;;;;;;;1.20;0.95;;;;;;;9.24;100.00;101585.31;5074005;28;20042;-76
2022/09/02 03:24:41;;;;;;;0.95;0.80;;;;;;;9.23;100.00;101586.31;5073966;28;20059;-76
2022/09/02 03:27:07;;;;;;;1.33;0.98;;;;;;;9.22;100.00;101584.63;5090593;28;20115;-76
2022/09/02 03:29:33;;;;;;;1.25;1.10;;;;;;;9.20;100.00;101591.91;5090196;28;20034;-76
2022/09/02 03:31:59;;;;;;;1.60;1.00;;;;;;;9.21;100.00;101598.09;5073931;28;20040;-76
2022/09/02 03:34:25;;;;;;;1.67;1.00;;;;;;;9.13;100.00;101581.91;5075074;28;20018;-76
2022/09/02 03:36:51;;;;;;;1.37;1.20;;;;;;;9.18;100.00;101593.88;5092899;28;20446;-78
2022/09/02 03:39:17;;;;;;;1.07;0.90;;;;;;;9.12;100.00;101589.06;5092369;28;20262;-75
2022/09/02 03:41:48;;;;;;;1.42;0.93;;;;;;;9.09;100.00;101576.00;5093010;28;20087;-78
2022/09/02 03:44:13;;;;;;;1.52;1.10;;;;;;;9.15;100.00;101588.78;5093429;28;20046;-77
2022/09/02 03:46:41;;;;;;;3.35;1.13;;;;;;;9.12;100.00;101591.72;5093736;28;20154;-78
2022/09/02 03:49:07;;;;;;;1.20;1.10;;;;;;;9.07;100.00;101581.47;5093795;28;20093;-78
2022/09/02 03:51:33;;;;;;;3.85;1.20;;;;;;;9.12;100.00;101581.06;5093475;28;20027;-78
2022/09/02 03:53:58;;;;;;;1.40;1.17;;;;;;;9.09;100.00;101578.69;5076385;28;20100;-78
2022/09/02 03:56:25;;;;;;;2.25;0.95;;;;;;;9.06;100.00;101578.91;5077314;28;20027;-78
2022/09/02 03:58:51;;;;;;;1.97;1.30;;;;;;;9.06;100.00;101569.13;5090500;28;20792;-79
2022/09/02 04:01:22;;;;;;;1.30;1.00;;;;;;;9.02;100.00;101566.88;5071923;28;20020;-79
2022/09/02 04:03:50;;;;;;;1.70;1.20;;;;;;;9.01;100.00;101565.16;5071439;28;20767;-78
2022/09/02 04:06:18;;;;;;;1.75;1.20;;;;;;;8.96;100.00;101557.56;5088723;28;20031;-79
2022/09/02 04:08:45;;;;;;;4.63;1.60;;;;;;;8.94;100.00;101554.19;5088510;28;20036;-78
2022/09/02 04:11:15;;;;;;;4.68;2.83;;;;;;;8.91;100.00;101553.63;5089715;28;20101;-77
2022/09/02 04:13:41;;;;;;;6.10;4.03;;;;;;;8.84;100.00;101543.50;5071984;28;20028;-77
2022/09/02 04:16:09;;;;;;;3.92;2.72;;;;;;;8.81;100.00;101542.94;5088359;28;20354;-78
2022/09/02 04:18:36;;;;;;;3.95;2.35;;;;;;;8.77;100.00;101542.31;5088773;28;20043;-78
2022/09/02 04:21:02;;;;;;;2.70;2.20;;;;;;;8.73;100.00;101538.22;5087877;28;20499;-78
2022/09/02 04:23:28;;;;;;;3.58;1.88;;;;;;;8.73;100.00;101534.72;5088528;28;20027;-78
2022/09/02 04:25:54;;;;;;;4.30;1.75;;;;;;;8.65;100.00;101522.94;5087887;28;20051;-79
2022/09/02 04:28:20;;;;;;;2.00;1.50;;;;;;;8.62;100.00;101533.00;5088168;28;20027;-78
2022/09/02 04:30:47;;;;;;;3.60;1.42;;;;;;;8.63;100.00;101532.84;5070809;28;20020;-78
2022/09/02 04:33:13;;;;;;;1.52;1.30;;;;;;;8.60;100.00;101533.13;5087910;28;20028;-78
2022/09/02 04:35:40;;;;;;;2.40;1.73;;;;;;;8.64;100.00;101533.72;5070986;28;20031;-78
2022/09/02 04:38:06;;;;;;;2.65;1.67;;;;;;;8.63;100.00;101546.16;5087953;28;20606;-77
2022/09/02 04:40:33;;;;;;;2.08;1.40;;;;;;;8.62;100.00;101547.16;5070754;28;20106;-78
2022/09/02 04:42:59;;;;;;;4.20;1.93;;;;;;;8.63;100.00;101545.31;5070983;28;20119;-78
2022/09/02 04:45:25;;;;;;;6.93;1.55;;;;;;;8.63;100.00;101543.50;5087585;28;20070;-78
2022/09/02 04:47:51;;;;;;;2.85;1.60;;;;;;;8.65;100.00;101532.72;5070490;28;20039;-77
2022/09/02 04:50:17;;;;;;;;;;;;;;;8.72;100.00;101543.72;5070788;28;20519;-78
2022/09/02 04:52:56;;;;;;;3.95;1.42;;;;;;;8.70;100.00;101537.66;5072577;28;19922;-78
2022/09/02 04:55:22;;;;;;;4.80;1.95;;;;;;;8.71;100.00;101539.34;5087332;28;20048;-78
2022/09/02 04:57:48;;;;;;;3.42;1.85;;;;;;;8.73;100.00;101534.72;5087408;28;20119;-78
2022/09/02 05:00:14;;;;;;;2.83;1.42;;;;;;;8.80;100.00;101535.91;5086969;28;20123;-78
2022/09/02 05:02:40;;;;;;;6.20;1.90;;;;;;;8.87;100.00;101559.22;5070747;28;20401;-77
2022/09/02 05:05:07;;;;;;;3.05;1.40;;;;;;;8.90;100.00;101563.44;5087194;28;20032;-79
2022/09/02 05:07:37;;;;;;;2.28;1.58;;;;;;;8.99;100.00;101573.31;5087535;28;20024;-78
2022/09/02 05:10:04;;;;;;;1.45;1.08;;;;;;;9.05;100.00;101577.25;5086555;28;20485;-77
2022/09/02 05:12:35;;;;;;;3.15;1.42;;;;;;;9.11;100.00;101582.06;5079645;28;20024;-78
2022/09/02 05:15:01;;;;;;;2.13;1.40;;;;;;;9.16;100.00;101584.31;5070453;28;20028;-78
2022/09/02 05:17:34;;;;;;;4.15;1.40;;;;;;;9.26;100.00;101591.38;5070760;28;20012;-79
2022/09/02 05:20:00;;;;;;;5.50;3.35;;;;;;;9.29;100.00;101590.25;5089401;28;20096;-78
2022/09/02 05:22:28;;;;;;;2.42;1.60;;;;;;;9.41;100.00;101599.88;5091442;28;20416;-77
2022/09/02 05:24:55;;;;;;;3.70;1.83;;;;;;;9.45;100.00;101601.25;5074164;28;20043;-77
2022/09/02 05:27:22;;;;;;;6.35;1.55;;;;;;;9.60;100.00;101612.44;5092768;28;20027;-77
2022/09/02 05:29:48;;;;;;;5.00;1.63;;;;;;;9.70;100.00;101609.78;5074925;28;20032;-78
2022/09/02 05:32:17;;;;;;;3.05;1.48;;;;;;;9.84;100.00;101617.41;5075462;28;20027;-78
2022/09/02 05:34:46;;;;;;;3.10;2.13;;;;;;;9.97;100.00;101633.16;5074317;28;20058;-78
2022/09/02 05:37:12;;;;;;;;;;;;;;;10.06;100.00;101637.66;5091463;28;20035;-78
2022/09/02 05:39:37;;;;;;;;;;;;;;;10.13;100.00;101649.47;5091000;28;19912;-78
2022/09/02 05:42:04;;;;;;;3.22;1.42;;;;;;;10.22;100.00;101628.28;5073447;28;19912;-77
2022/09/02 05:44:31;;;;;;;4.63;1.73;;;;;;;10.40;100.00;101639.16;5091667;28;20047;-74
2022/09/02 05:46:58;;;;;;;2.58;1.67;;;;;;;10.60;100.00;101645.34;5074704;28;20059;-78
2022/09/02 05:49:25;;;;;;;5.88;1.65;;;;;;;11.40;100.00;101657.44;5090815;28;20036;-78
2022/09/02 05:52:00;;;;;;;5.28;1.00;;;;;;;13.48;100.00;101694.91;5074041;28;20028;-78
2022/09/02 05:54:35;;;;;;;3.83;0.98;;;;;;;15.01;100.00;101674.22;5077860;28;20054;-78
2022/09/02 05:57:08;;;;;;;2.95;1.17;;;;;;;16.03;100.00;101578.34;5085408;28;20366;-78
2022/09/02 05:59:38;;;;;;;3.03;0.68;;;;;;;16.85;100.00;101472.53;5084369;28;20028;-78
2022/09/02 06:02:05;;;;;;;1.45;1.00;;;;;;;17.91;100.00;101346.03;5085408;28;20032;-78
2022/09/02 06:04:31;;;;;;;1.40;1.10;;;;;;;18.71;100.00;101107.66;5085622;28;20036;-78
2022/09/02 06:06:57;;;;;;;1.20;0.77;;;;;;;19.28;100.00;100880.69;5085223;28;20032;-78
2022/09/02 06:09:24;;;;;;;3.72;1.60;;;;;;;19.22;100.00;100655.03;5065241;28;20027;-78
2022/09/02 06:11:51;;;;;;;2.28;0.68;;;;;;;19.83;100.00;100596.56;5084657;28;20412;-78
2022/09/02 06:14:26;;;;;;;1.92;0.90;;;;;;;19.76;100.00;100420.56;5068307;28;20214;-75
2022/09/02 06:16:55;;;;;;;1.77;1.00;;;;;;;19.06;100.00;100350.72;5085502;28;20028;-78
2022/09/02 06:19:29;;;;;;;4.13;1.40;;;;;;;19.26;100.00;100393.75;5083995;28;20034;-76
2022/09/02 06:21:56;;;;;;;2.38;0.70;;;;;;;18.81;100.00;100295.91;5084008;28;20035;-76
2022/09/02 06:24:24;;;;;;;1.48;1.00;;;;;;;18.83;100.00;100500.16;5084957;28;20024;-76
2022/09/02 06:26:51;;;;;;;;;;;;;;;19.21;100.00;100544.31;5081484;28;20039;-76
2022/09/02 06:29:18;;;;;;;1.52;0.70;;;;;;;18.47;100.00;100385.47;5083748;28;19912;-76
2022/09/02 06:31:46;;;;;;;0.95;0.80;;;;;;;18.82;100.00;100547.19;5085567;28;20028;-78
2022/09/02 06:34:15;;;;;;;2.00;1.10;;;;;;;17.63;100.00;100495.56;5086007;28;20028;-79
2022/09/02 06:36:45;;;;;;;3.47;0.90;;;;;;;18.23;100.00;100805.97;5086120;28;20028;-79
2022/09/02 06:39:14;;;;;;;2.92;1.00;;;;;;;18.37;100.00;100685.13;5063877;28;20085;-78
2022/09/02 06:41:42;;;;;;;2.03;0.80;;;;;;;18.21;100.00;100594.56;5085338;28;20630;-79
2022/09/02 06:44:11;;;;;;;5.45;1.90;;;;;;;18.36;100.00;100813.22;5068686;28;20127;-79
2022/09/02 06:46:45;;;;;;;2.40;0.80;;;;;;;18.42;100.00;100744.78;5084388;28;20492;-76
2022/09/02 06:49:15;;;;;;;3.42;0.70;;;;;;;18.52;100.00;100715.44;5082203;28;20043;-76
2022/09/02 06:51:45;;;;;;;2.70;0.90;;;;;;;18.90;100.00;100708.38;5083350;28;20032;-76
2022/09/02 06:54:14;;;;;;;1.55;0.75;;;;;;;19.12;100.00;100750.25;5061841;28;20367;-76
2022/09/02 06:56:41;;;;;;;2.47;0.90;;;;;;;18.84;99.82;100474.75;5083185;28;20024;-76
2022/09/02 06:59:07;;;;;;;1.00;0.70;;;;;;;19.21;99.19;100583.03;5082642;28;20028;-76
2022/09/02 07:01:45;;;;;;;3.25;1.60;;;;;;;18.78;94.28;100345.88;5083589;28;20272;-76
2022/09/02 07:07:03;;;;;;;0.63;0.60;;;;;;;18.77;100.00;100666.84;5086199;28;20474;-79
2022/09/02 07:09:31;;;;;;;3.80;1.30;;;;;;;18.51;100.00;100678.63;5062741;28;20027;-76
2022/09/02 07:12:04;;;;;;;1.60;1.00;;;;;;;18.74;100.00;100766.47;5068975;28;20028;-77
2022/09/02 07:14:41;;;;;;;1.13;0.65;;;;;;;18.80;96.15;100579.06;5087173;28;20317;-76
2022/09/02 07:17:11;;;;;;;1.25;1.10;;;;;;;18.52;96.81;100539.72;5084406;28;20115;-76
2022/09/02 07:19:37;;;;;;;1.50;0.80;;;;;;;18.92;100.00;100806.38;5070199;28;20638;-77
2022/09/02 07:22:04;;;;;;;1.33;0.93;;;;;;;19.06;96.40;100710.56;5070355;28;20028;-76
2022/09/02 07:24:31;;;;;;;2.47;0.95;;;;;;;18.40;84.55;100138.75;5065259;28;20043;-76
2022/09/02 07:26:57;;;;;;;1.08;0.60;;;;;;;18.18;86.09;100215.97;5070056;28;20028;-76
2022/09/02 07:29:24;;;;;;;4.55;0.77;;;;;;;18.47;85.56;100274.66;5086762;28;20051;-76
2022/09/02 07:31:50;;;;;;;0.90;0.65;;;;;;;18.90;87.75;100511.75;5070237;28;20035;-77
2022/09/02 07:34:18;;;;;;;1.65;0.70;;;;;;;18.95;80.82;100211.66;5086781;28;20070;-77
2022/09/02 07:36:47;;;;;;;3.20;0.60;;;;;;;19.00;80.37;100248.00;5070634;28;20137;-76
2022/09/02 07:39:17;;;;;;;1.50;0.70;;;;;;;18.41;84.81;100367.44;5086971;28;20372;-77
2022/09/02 07:41:48;;;;;;;1.40;0.82;;;;;;;18.16;81.74;100142.41;5069555;28;20028;-77
2022/09/02 07:44:14;;;;;;;1.08;0.63;;;;;;;18.87;80.14;100300.38;5065865;28;20500;-77
2022/09/02 07:46:40;;;;;;;0.70;0.55;;;;;;;19.05;74.71;100020.91;5070171;28;20414;-77
2022/09/02 07:49:09;;;;;;;0.82;0.70;;;;;;;18.71;75.26;99994.41;5086373;28;20042;-76
2022/09/02 07:51:42;;;;;;;1.92;0.55;;;;;;;18.44;77.10;100085.91;5069549;28;20075;-76
2022/09/02 07:54:09;;;;;;;2.33;0.98;;;;;;;18.93;78.47;100376.03;5083571;28;20232;-77
2022/09/02 07:56:35;;;;;;;1.30;0.52;;;;;;;18.82;75.76;100149.63;5070051;28;20027;-77
2022/09/02 07:59:01;;;;;;;0.80;0.55;;;;;;;19.35;79.19;100519.59;5086531;28;20024;-77
2022/09/02 08:01:28;;;;;;;1.80;0.52;;;;;;;19.58;74.00;100241.91;5086680;28;20069;-77
2022/09/02 08:03:55;;;;;;;1.02;0.50;;;;;;;19.50;73.68;100234.09;5086222;28;20101;-78
2022/09/02 08:06:27;;;;;;;1.98;0.57;;;;;;;19.33;71.18;100023.69;5070132;28;20052;-79
2022/09/02 08:08:54;;;;;;;1.92;0.38;;;;;;;19.01;70.62;99927.75;5087194;28;20476;-77
2022/09/02 08:11:20;;;;;;;1.00;0.50;;;;;;;19.01;70.44;99965.63;5088863;28;20016;-77
2022/09/02 08:13:45;;;;;;;0.85;0.85;;;;;;;19.65;70.94;100237.19;5087950;28;20089;-77
2022/09/02 08:16:11;;;;;;;1.05;0.60;;;;;;;20.06;68.47;100139.78;5088025;28;20085;-77
2022/09/02 08:18:37;;;;;;;0.77;0.77;;;;;;;20.59;66.22;100090.66;5087917;28;20122;-77
2022/09/02 08:21:02;;;;;;;1.25;0.70;;;;;;;20.01;65.88;99937.28;5071821;28;20035;-78
2022/09/02 08:23:28;;;;;;;2.83;0.73;;;;;;;19.98;59.98;99309.34;5071121;28;20035;-77
2022/09/02 08:25:54;;;;;;;1.20;0.50;;;;;;;20.02;57.87;99158.78;5071222;28;20020;-77
2022/09/02 08:28:19;;;;;;;0.40;0.40;;;;;;;19.79;57.54;99154.56;5088404;28;20085;-77
2022/09/02 08:30:45;;;;;;;0.70;0.50;;;;;;;20.40;57.22;99335.66;5088196;28;20788;-77
2022/09/02 08:33:10;;;;;;;0.55;0.55;;;;;;;20.88;57.66;99610.44;5089439;28;20035;-78
2022/09/02 08:35:36;;;;;;;2.00;0.57;;;;;;;20.59;56.78;99404.66;5072168;28;20059;-77
2022/09/02 08:38:02;;;;;;;1.48;0.45;;;;;;;21.18;56.47;99590.06;5088761;28;20516;-77
2022/09/02 08:40:40;;;;;;;0.70;0.38;;;;;;;20.86;57.04;99597.16;5071875;28;20027;-78
2022/09/02 08:43:38;;;;;;;2.45;0.63;;;;;;;21.82;56.54;99867.03;5071525;28;20521;-77
2022/09/02 08:46:07;;;;;;;1.95;0.60;;;;;;;21.93;55.11;99662.22;5083000;28;20050;-77
2022/09/02 08:48:51;;;;;;;0.80;0.60;;;;;;;21.18;53.21;99183.78;5084993;28;20689;-78
2022/09/02 08:51:29;;;;;;;0.60;0.50;;;;;;;21.31;53.01;99291.03;5088448;28;20036;-77
2022/09/02 08:54:01;;;;;;;1.88;0.57;;;;;;;21.76;51.40;99275.88;5088619;28;20039;-78
2022/09/02 08:56:27;;;;;;;1.05;0.52;;;;;;;21.05;51.79;99101.03;5088696;28;20027;-78
2022/09/02 08:58:55;;;;;;;0.50;0.50;;;;;;;22.09;51.96;99578.06;5089910;28;20378;-77
2022/09/02 09:01:23;;;;;;;1.85;0.60;;;;;;;20.95;51.82;99095.59;5090231;28;20708;-78
2022/09/02 09:04:07;;;;;;;3.40;0.60;;;;;;;21.34;52.19;99388.19;5069403;28;20111;-78
2022/09/02 09:06:47;;;;;;;2.42;0.50;;;;;;;21.49;52.03;99437.16;5085462;28;20027;-77
2022/09/02 09:09:36;;;;;;;0.65;0.57;;;;;;;21.75;51.35;99483.41;5072279;28;20043;-78
2022/09/02 09:12:22;;;;;;;2.30;0.70;;;;;;;21.33;49.81;99049.16;5089648;28;20043;-77
2022/09/02 09:15:15;;;;;;;2.05;0.65;;;;;;;21.57;49.75;99202.28;5083726;28;20047;-78
2022/09/02 09:17:57;;;;;;;1.00;0.60;;;;;;;21.75;50.12;99407.38;5085785;28;20992;-78
2022/09/02 09:20:32;;;;;;;0.50;0.50;;;;;;;21.81;50.32;99419.84;5088387;28;20032;-78
2022/09/02 09:23:00;;;;;;;0.95;0.50;;;;;;;22.54;50.58;99772.38;5090087;28;20085;-77
2022/09/02 09:25:30;;;;;;;1.45;0.82;;;;;;;22.08;48.44;99212.28;5074501;28;20051;-78
2022/09/02 09:28:00;;;;;;;0.63;0.60;;;;;;;22.63;50.35;99781.69;5092427;28;20094;-78
2022/09/02 09:30:28;;;;;;;3.25;0.98;;;;;;;22.58;49.90;99686.47;5090864;28;20102;-77
2022/09/02 09:33:01;;;;;;;2.63;1.10;;;;;;;23.30;49.54;99891.66;5073514;28;20026;-77
2022/09/02 09:35:47;;;;;;;1.23;1.10;;;;;;;21.18;48.78;98942.28;5089987;28;20024;-78
2022/09/02 09:38:12;;;;;;;;;;;;;;;21.18;49.72;99174.84;5086864;28;20042;-78
2022/09/02 09:40:38;;;;;;;0.57;0.57;;;;;;;21.37;48.88;99192.22;5089867;28;19998;-78
2022/09/02 09:43:11;;;;;;;2.75;0.85;;;;;;;21.97;50.72;99759.56;5093314;28;20036;-78
2022/09/02 09:45:40;;;;;;;1.00;0.70;;;;;;;21.60;49.31;99344.84;5092818;28;20540;-79
2022/09/02 09:48:22;;;;;;;4.05;1.73;;;;;;;22.03;49.76;99647.06;5091416;28;20509;-78
2022/09/02 09:51:12;;;;;;;5.78;1.88;;;;;;;20.93;49.84;99233.44;5084833;28;20126;-77
2022/09/02 09:53:39;;;;;;;1.70;0.90;;;;;;;22.65;48.71;99839.38;5084889;28;20032;-78
2022/09/02 09:56:17;;;;;;;1.27;0.90;;;;;;;22.61;46.93;99408.47;5067102;28;20030;-77
2022/09/02 09:58:48;;;;;;;1.02;0.70;;;;;;;22.26;46.24;99189.94;5087093;28;20042;-78
2022/09/02 10:01:23;;;;;;;5.72;0.85;;;;;;;21.60;46.85;99024.44;5086648;28;20067;-78
2022/09/02 10:03:52;;;;;;;2.08;0.80;;;;;;;22.12;47.59;99439.75;5088539;28;20038;-78
2022/09/02 10:06:22;;;;;;;2.38;0.77;;;;;;;21.81;46.32;99129.19;5087052;28;20027;-77
2022/09/02 10:09:17;;;;;;;1.38;0.65;;;;;;;21.71;45.79;98990.72;5073351;28;20043;-78
2022/09/02 10:12:11;;;;;;;1.60;0.47;;;;;;;21.62;43.67;98547.88;5084626;28;20039;-77
2022/09/02 10:14:42;;;;;;;0.88;0.50;;;;;;;21.42;45.15;98730.78;5083486;28;20067;-78
2022/09/02 10:17:39;;;;;;;0.60;0.45;;;;;;;21.52;46.52;99167.00;5084311;28;20032;-77
2022/09/02 10:20:16;;;;;;;0.75;0.63;;;;;;;21.68;44.79;98859.03;5088128;28;20024;-78
2022/09/02 10:23:16;;;;;;;2.10;0.70;;;;;;;22.27;45.42;99303.03;5090231;28;20086;-78
2022/09/02 10:26:05;;;;;;;2.58;0.50;;;;;;;22.50;44.86;99268.16;5084333;28;20426;-77
2022/09/02 10:28:39;;;;;;;1.33;0.47;;;;;;;23.13;43.01;99221.38;5083806;28;20027;-77
2022/09/02 10:31:49;;;;;;;4.78;0.77;;;;;;;21.15;45.96;98860.63;5085929;28;20037;-78
2022/09/02 10:34:33;;;;;;;2.05;0.50;;;;;;;22.16;44.13;99037.75;5044937;28;20059;-77
2022/09/02 10:37:11;;;;;;;1.00;0.85;;;;;;;22.33;45.58;99407.94;5063808;28;20065;-78
2022/09/02 10:40:00;;;;;;;1.55;0.80;;;;;;;23.16;44.91;99616.34;5043166;28;20138;-77
2022/09/02 10:42:47;;;;;;;2.67;0.70;;;;;;;22.52;45.41;99323.09;5048022;28;20040;-78
2022/09/02 10:45:19;;;;;;;0.52;0.40;;;;;;;22.77;43.72;99134.50;5047624;28;20502;-77
2022/09/02 10:48:01;;;;;;;4.28;0.70;;;;;;;23.53;43.39;99400.03;5052427;28;20123;-77
2022/09/02 10:50:57;;;;;;;1.13;0.40;;;;;;;23.14;43.36;99215.66;5053643;28;20064;-77
2022/09/02 10:53:33;;;;;;;0.80;0.60;;;;;;;22.28;44.03;98915.94;5036219;28;20044;-77
2022/09/02 10:56:09;;;;;;;1.33;0.65;;;;;;;21.90;45.34;99028.94;5035018;28;20040;-77
2022/09/02 10:58:41;;;;;;;1.27;0.63;;;;;;;22.52;46.91;99601.34;5064938;28;20123;-77
2022/09/02 11:01:10;;;;;;;3.80;0.60;;;;;;;22.59;46.36;99554.81;5050772;28;20059;-77
2022/09/02 11:03:55;;;;;;;1.38;0.57;;;;;;;23.24;45.44;99704.84;5052883;28;20056;-77
2022/09/02 11:06:37;;;;;;;1.40;0.60;;;;;;;22.06;46.86;99343.00;5038455;28;20191;-77
2022/09/02 11:09:32;;;;;;;2.25;0.75;;;;;;;23.16;46.12;99760.66;5051603;28;20047;-79
2022/09/02 11:12:06;;;;;;;5.80;0.55;;;;;;;24.11;44.36;99804.81;5070511;28;20406;-77
2022/09/02 11:14:39;;;;;;;1.08;0.40;;;;;;;22.92;44.37;99172.50;5065689;28;20039;-78
2022/09/02 11:17:18;;;;;;;3.60;0.77;;;;;;;22.83;45.61;99420.94;5073380;28;20040;-76
2022/09/02 11:20:07;;;;;;;2.53;0.60;;;;;;;23.66;44.04;99583.84;5090344;28;20036;-78
2022/09/02 11:22:52;;;;;;;1.48;0.50;;;;;;;23.67;43.99;99543.78;5083734;28;20071;-77
2022/09/02 11:25:30;;;;;;;1.40;0.60;;;;;;;24.08;43.62;99615.34;5090368;28;20059;-77
2022/09/02 11:28:11;;;;;;;0.80;0.57;;;;;;;23.85;43.29;99430.66;5089774;28;20040;-77
2022/09/02 11:31:05;;;;;;;0.47;0.45;;;;;;;24.10;43.37;99553.16;5065439;28;20117;-77
2022/09/02 11:33:59;;;;;;;1.55;0.57;;;;;;;22.30;46.08;99190.22;5080637;28;20040;-77
2022/09/02 11:36:26;;;;;;;2.92;0.70;;;;;;;22.51;47.96;99642.38;5090602;28;20434;-77
2022/09/02 11:39:07;;;;;;;2.70;0.57;;;;;;;23.11;46.06;99580.16;5088793;28;20062;-78
2022/09/02 11:41:53;;;;;;;0.93;0.80;;;;;;;23.25;46.67;99732.88;5082417;28;20043;-77
2022/09/02 11:44:57;;;;;;;1.58;0.60;;;;;;;22.49;46.73;99354.38;5087498;28;20032;-77